Time;durP1;ratioP1;P1;durP2;ratioP2;P2;SDS_P1;SDS_P2;PMS_P1;PMS_P2;Temp;Humidity;BMP_temperature;BMP_pressure;BME280_temperature;BME280_humidity;BME280_pressure;Samples;Min_cycle;Max_cycle;Signal;HPM_P1;HPM_P2
2021/12/05 00:18:23;;;;;;;;;;;;;;;;;;5086275;28;19935;-67
2021/12/05 00:21:09;;;;;;;;;;;;;;;;;;5081168;28;20399;-68
2021/12/05 00:23:39;;;;;;;;;;;;;;;;;;5086116;28;20350;-66
2021/12/05 00:26:08;;;;;;;;;;;;;;;;;;5087096;28;19924;-67
2021/12/05 00:29:01;;;;;;;;;;;;;;;;;;5091659;28;19964;-67
2021/12/05 00:31:53;;;;;;;;;;;;;;;;;;5088986;28;19924;-67
2021/12/05 00:37:45;;;;;;;;;;;;;;;;;;5085058;28;19927;-67
2021/12/05 00:51:45;;;;;;;;;;;;;;;;;;5050970;28;20379;-66
2021/12/05 00:59:56;;;;;;;;;;;;;;;;;;5086074;28;20456;-67
2021/12/05 01:02:47;;;;;;;;;;;;;;;;;;5085235;28;20374;-67
2021/12/05 01:05:29;;;;;;;;;;;;;;;;;;5086551;28;20427;-65
2021/12/05 01:08:14;;;;;;;;;;;;;;;;;;5091470;28;19924;-67
2021/12/05 01:10:59;;;;;;;;;;;;;;;;;;5083159;28;19974;-68
2021/12/05 01:13:35;;;;;;;;;;;;;;;;;;5088834;28;20370;-68
2021/12/05 01:16:02;;;;;;;;;;;;;;;;;;5076806;28;19924;-67
2021/12/05 01:18:29;;;;;;;;;;;;;;;;;;5091000;28;20291;-68
2021/12/05 01:20:57;;;;;;;;;;;;;;;;;;5091207;28;20015;-67
2021/12/05 01:23:30;;;;;;;;;;;;;;;;;;5088488;28;19924;-67
2021/12/05 01:26:02;;;;;;;;;;;;;;;;;;5089358;28;19924;-67
2021/12/05 01:28:40;;;;;;;;;;;;;;;;;;5091324;28;19924;-67
2021/12/05 01:31:15;;;;;;;;;;;;;;;;;;5085222;28;19931;-67
2021/12/05 01:33:48;;;;;;;;;;;;;;;;;;5089800;28;20384;-66
2021/12/05 01:36:20;;;;;;;;;;;;;;;;;;5089320;28;19970;-67
2021/12/05 01:39:06;;;;;;;;;;;;;;;;;;5085982;28;19979;-65
2021/12/05 01:52:50;;;;;;;;;;;;;;;;;;5091763;28;19924;-66
2021/12/05 01:55:42;;;;;;;;;;;;;;;;;;5090906;28;19930;-67
2021/12/05 01:58:27;;;;;;;;;;;;;;;;;;5092487;28;20033;-65
2021/12/05 02:01:11;;;;;;;;;;;;;;;;;;5088183;28;19924;-66
2021/12/05 02:09:39;;;;;;;;;;;;;;;;;;5063780;28;19920;-65
2021/12/05 02:12:21;;;;;;;;;;;;;;;;;;5091405;28;20006;-66
2021/12/05 02:15:22;;;;;;;;;;;;;;;;;;5093325;28;19920;-66
2021/12/05 02:31:45;;;;;;;;;;;;;;;;;;5084996;28;19969;-66
2021/12/05 02:34:28;;;;;;;;;;;;;;;;;;5091873;28;19928;-66
2021/12/05 02:37:10;;;;;;;;;;;;;;;;;;5086749;28;20946;-65
2021/12/05 02:39:53;;;;;;;;;;;;;;;;;;5092452;28;20026;-65
2021/12/05 02:42:26;;;;;;;;;;;;;;;;;;5088445;28;20291;-66
2021/12/05 02:44:53;;;;;;;;;;;;;;;;;;5085002;28;20010;-66
2021/12/05 02:47:20;;;;;;;;;;;;;;;;;;5088813;28;19935;-69
2021/12/05 02:49:47;;;;;;;;;;;;;;;;;;5088149;28;20348;-65
2021/12/05 02:52:17;;;;;;;;;;;;;;;;;;5087303;28;19924;-67
2021/12/05 02:54:46;;;;;;;;;;;;;;;;;;5088355;28;20013;-66
2021/12/05 02:57:13;;;;;;;;;;;;;;;;;;5087688;28;20031;-66
2021/12/05 02:59:46;;;;;;;;;;;;;;;;;;5082377;28;19994;-67
2021/12/05 03:02:14;;;;;;;;;;;;;;;;;;5089155;28;19924;-67
2021/12/05 03:04:43;;;;;;;;;;;;;;;;;;5090065;28;19932;-66
2021/12/05 03:07:10;;;;;;;;;;;;;;;;;;5087390;28;19959;-68
2021/12/05 03:09:37;;;;;;;;;;;;;;;;;;5086197;28;19931;-66
2021/12/05 03:12:04;;;;;;;;;;;;;;;;;;5086012;28;19925;-66
2021/12/05 03:14:31;;;;;;;;;;;;;;;;;;5087141;28;19924;-67
2021/12/05 03:16:58;;;;;;;;;;;;;;;;;;5087861;28;19935;-66
2021/12/05 03:19:25;;;;;;;;;;;;;;;;;;5087378;28;20275;-66
2021/12/05 03:21:52;;;;;;;;;;;;;;;;;;5090440;28;19932;-65
2021/12/05 03:24:19;;;;;;;;;;;;;;;;;;5089043;28;19954;-66
2021/12/05 03:26:46;;;;;;;;;;;;;;;;;;5090585;28;19932;-67
2021/12/05 03:29:13;;;;;;;;;;;;;;;;;;5085828;28;19939;-66
2021/12/05 03:31:39;;;;;;;;;;;;;;;;;;5091058;28;19928;-65
2021/12/05 03:34:06;;;;;;;;;;;;;;;;;;5090594;28;19924;-66
2021/12/05 03:36:33;;;;;;;;;;;;;;;;;;5090545;28;19932;-65
2021/12/05 03:39:02;;;;;;;;;;;;;;;;;;5088623;28;19931;-66
2021/12/05 03:41:29;;;;;;;;;;;;;;;;;;5086405;28;20062;-67
2021/12/05 03:43:56;;;;;;;;;;;;;;;;;;5086464;28;19946;-66
2021/12/05 03:46:23;;;;;;;;;;;;;;;;;;5090651;28;19931;-65
2021/12/05 03:48:50;;;;;;;;;;;;;;;;;;5092395;28;19924;-67
2021/12/05 03:51:17;;;;;;;;;;;;;;;;;;5090639;28;19925;-66
2021/12/05 03:53:44;;;;;;;;;;;;;;;;;;5089260;28;19924;-67
2021/12/05 03:56:11;;;;;;;;;;;;;;;;;;5090629;28;19924;-66
2021/12/05 03:58:38;;;;;;;;;;;;;;;;;;5089766;28;19924;-66
2021/12/05 04:01:05;;;;;;;;;;;;;;;;;;5088426;28;19924;-66
2021/12/05 04:03:32;;;;;;;;;;;;;;;;;;5083063;28;20023;-66
2021/12/05 04:05:59;;;;;;;;;;;;;;;;;;5086857;28;20346;-65
2021/12/05 04:08:26;;;;;;;;;;;;;;;;;;5085376;28;20300;-66
2021/12/05 04:10:53;;;;;;;;;;;;;;;;;;5089296;28;20007;-66
2021/12/05 04:13:20;;;;;;;;;;;;;;;;;;5090624;28;19931;-66
2021/12/05 04:15:47;;;;;;;;;;;;;;;;;;5090556;28;19928;-66
2021/12/05 04:18:14;;;;;;;;;;;;;;;;;;5085479;28;19925;-65
2021/12/05 04:20:41;;;;;;;;;;;;;;;;;;5080075;28;19924;-65
2021/12/05 04:23:08;;;;;;;;;;;;;;;;;;5082912;28;20032;-65
2021/12/05 04:25:37;;;;;;;;;;;;;;;;;;5090273;28;19955;-67
2021/12/05 04:28:03;;;;;;;;;;;;;;;;;;5089252;28;20143;-67
2021/12/05 04:30:30;;;;;;;;;;;;;;;;;;5087035;28;19924;-65
2021/12/05 04:32:58;;;;;;;;;;;;;;;;;;5086060;28;20421;-66
2021/12/05 04:35:25;;;;;;;;;;;;;;;;;;5087074;28;19995;-66
2021/12/05 04:37:52;;;;;;;;;;;;;;;;;;5089354;28;20299;-67
2021/12/05 04:40:19;;;;;;;;;;;;;;;;;;5089165;28;19975;-66
2021/12/05 04:42:46;;;;;;;;;;;;;;;;;;5085651;28;19924;-66
2021/12/05 04:45:13;;;;;;;;;;;;;;;;;;5082370;28;19924;-66
2021/12/05 04:47:40;;;;;;;;;;;;;;;;;;5088198;28;19935;-66
2021/12/05 04:50:07;;;;;;;;;;;;;;;;;;5091170;28;19939;-66
2021/12/05 04:52:34;;;;;;;;;;;;;;;;;;5091976;28;19931;-65
2021/12/05 04:55:00;;;;;;;;;;;;;;;;;;5095574;28;19924;-65
2021/12/05 04:57:27;;;;;;;;;;;;;;;;;;5093721;28;19924;-66
2021/12/05 04:59:55;;;;;;;;;;;;;;;;;;5095042;28;20016;-66
2021/12/05 05:02:22;;;;;;;;;;;;;;;;;;5086744;28;19971;-65
2021/12/05 05:04:50;;;;;;;;;;;;;;;;;;5087982;28;19964;-66
2021/12/05 05:07:21;;;;;;;;;;;;;;;;;;5091162;28;20015;-66
2021/12/05 05:09:48;;;;;;;;;;;;;;;;;;5089555;28;20338;-65
2021/12/05 05:12:15;;;;;;;;;;;;;;;;;;5086787;28;19924;-66
2021/12/05 05:14:42;;;;;;;;;;;;;;;;;;5092502;28;19924;-66
2021/12/05 05:17:09;;;;;;;;;;;;;;;;;;5091946;28;19924;-66
2021/12/05 05:19:39;;;;;;;;;;;;;;;;;;5090792;28;20366;-66
2021/12/05 05:22:13;;;;;;;;;;;;;;;;;;5094154;28;19924;-66
2021/12/05 05:30:40;;;;;;;;;;;;;;;;;;5061968;28;19924;-66
2021/12/05 05:46:58;;;;;;;;;;;;;;;;;;5102722;28;19923;-66
2021/12/05 05:49:33;;;;;;;;;;;;;;;;;;5102689;28;19928;-66
2021/12/05 05:52:00;;;;;;;;;;;;;;;;;;5108483;27;19924;-65
2021/12/05 05:54:27;;;;;;;;;;;;;;;;;;5108256;27;19944;-65
2021/12/05 05:56:59;;;;;;;;;;;;;;;;;;5100559;28;20093;-65
2021/12/05 05:59:30;;;;;;;;;;;;;;;;;;5106676;28;19931;-65
2021/12/05 06:04:41;;;;;;;;;;;;;;;;;;5103158;28;19989;-65
2021/12/05 06:07:09;;;;;;;;;;;;;;;;;;5107532;28;19924;-65
2021/12/05 06:09:36;;;;;;;;;;;;;;;;;;5113874;28;19924;-68
2021/12/05 06:12:03;;;;;;;;;;;;;;;;;;5106040;28;19924;-65
2021/12/05 06:14:31;;;;;;;;;;;;;;;;;;5097039;28;19932;-66
2021/12/05 06:16:58;;;;;;;;;;;;;;;;;;5102438;28;20448;-68
2021/12/05 06:19:25;;;;;;;;;;;;;;;;;;5106985;28;19954;-66
2021/12/05 06:21:52;;;;;;;;;;;;;;;;;;5098819;28;20308;-66
2021/12/05 06:24:23;;;;;;;;;;;;;;;;;;5099753;28;19946;-67
2021/12/05 06:26:50;;;;;;;;;;;;;;;;;;5104862;28;19931;-66
2021/12/05 06:29:17;;;;;;;;;;;;;;;;;;5113108;28;19924;-65
2021/12/05 06:31:58;;;;;;;;;;;;;;;;;;5112643;28;19931;-65
2021/12/05 06:37:43;;;;;;;;;;;;;;;;;;5032621;28;20423;-66
2021/12/05 06:40:47;;;;;;;;;;;;;;;;;;5098576;28;19924;-66
2021/12/05 06:45:58;;;;;;;;;;;;;;;;;;5104073;28;20406;-66
2021/12/05 06:46:08;;;;;;;;;;;;;;;;;;5095826;28;20008;-66
2021/12/05 06:48:35;;;;;;;;;;;;;;;;;;5102732;28;19920;-66
2021/12/05 06:51:02;;;;;;;;;;;;;;;;;;5100856;28;19924;-66
2021/12/05 06:53:29;;;;;;;;;;;;;;;;;;5098255;28;20353;-67
2021/12/05 06:55:56;;;;;;;;;;;;;;;;;;5107514;28;19962;-66
2021/12/05 06:58:23;;;;;;;;;;;;;;;;;;5103274;28;20015;-66
2021/12/05 07:00:50;;;;;;;;;;;;;;;;;;5108148;27;20038;-66
2021/12/05 07:03:17;;;;;;;;;;;;;;;;;;5101469;28;19977;-66
2021/12/05 07:05:53;;;;;;;;;;;;;;;;;;5105261;28;19931;-66
2021/12/05 07:08:23;;;;;;;;;;;;;;;;;;5106306;28;19971;-66
2021/12/05 07:10:58;;;;;;;;;;;;;;;;;;5106112;28;20375;-66
2021/12/05 07:16:16;;;;;;;;;;;;;;;;;;5099960;28;19924;-66
2021/12/05 07:18:56;;;;;;;;;;;;;;;;;;5103288;28;19971;-66
2021/12/05 07:21:36;;;;;;;;;;;;;;;;;;5105927;28;19927;-66
2021/12/05 07:24:11;;;;;;;;;;;;;;;;;;5099873;28;19924;-66
2021/12/05 07:26:52;;;;;;;;;;;;;;;;;;5106271;28;20014;-66
2021/12/05 07:40:27;;;;;;;;;;;;;;;;;;5107346;28;19953;-66
2021/12/05 07:42:54;;;;;;;;;;;;;;;;;;5099379;28;19923;-65
2021/12/05 07:45:26;;;;;;;;;;;;;;;;;;5108101;27;19924;-65
2021/12/05 07:47:55;;;;;;;;;;;;;;;;;;5108046;27;19934;-66
2021/12/05 07:50:30;;;;;;;;;;;;;;;;;;5103015;28;19924;-65
2021/12/05 07:53:05;;;;;;;;;;;;;;;;;;5110805;28;19924;-65
2021/12/05 07:55:39;;;;;;;;;;;;;;;;;;5110674;28;19924;-65
2021/12/05 07:58:14;;;;;;;;;;;;;;;;;;5102708;27;19977;-66
2021/12/05 08:00:53;;;;;;;;;;;;;;;;;;5100120;27;19924;-66
2021/12/05 08:14:30;;;;;;;;;;;;;;;;;;5102446;28;19922;-67
2021/12/05 08:16:59;;;;;;;;;;;;;;;;;;5099685;28;20299;-66
2021/12/05 08:19:26;;;;;;;;;;;;;;;;;;5107256;28;19977;-66
2021/12/05 08:21:55;;;;;;;;;;;;;;;;;;5107691;28;19930;-67
2021/12/05 08:24:22;;;;;;;;;;;;;;;;;;5102658;28;20030;-65
2021/12/05 08:26:51;;;;;;;;;;;;;;;;;;5096482;28;19931;-65
2021/12/05 08:29:24;;;;;;;;;;;;;;;;;;5104036;28;19977;-65
2021/12/05 08:32:27;;;;;;;;;;;;;;;;;;5097391;28;19931;-67
2021/12/05 08:35:07;;;;;;;;;;;;;;;;;;5098172;28;19927;-66
2021/12/05 08:38:28;;;;;;;;;;;;;;;;;;5099078;28;19928;-65
2021/12/05 08:43:47;;;;;;;;;;;;;;;;;;5067880;28;20298;-66
2021/12/05 09:08:48;;;;;;;;;;;;;;;;;;5104780;28;20021;-65
2021/12/05 09:23:21;;;;;;;;;;;;;;;;;;5102906;28;20031;-65
2021/12/05 09:26:07;;;;;;;;;;;;;;;;;;5101917;28;20404;-66
2021/12/05 09:51:19;;;;;;;;;;;;;;;;;;5105106;28;19935;-66
2021/12/05 10:02:34;;;;;;;;;;;;;;;;;;5107534;28;19927;-66
2021/12/05 10:08:33;;;;;;;;;;;;;;;;;;5044440;28;19994;-66
2021/12/05 10:11:19;;;;;;;;;;;;;;;;;;5041125;28;19952;-66
2021/12/05 10:13:59;;;;;;;;;;;;;;;;;;5093428;28;20398;-66
2021/12/05 10:16:30;;;;;;;;;;;;;;;;;;5104810;28;19928;-65
2021/12/05 10:19:25;;;;;;;;;;;;;;;;;;5105860;28;19986;-66
2021/12/05 10:35:59;;;;;;;;;;;;;;;;;;5103468;28;20383;-65
2021/12/05 10:38:27;;;;;;;;;;;;;;;;;;5103163;27;19924;-64
2021/12/05 10:41:03;;;;;;;;;;;;;;;;;;5106398;28;19967;-65
2021/12/05 10:43:30;;;;;;;;;;;;;;;;;;5108648;28;19924;-66
2021/12/05 10:45:56;;;;;;;;;;;;;;;;;;5105842;28;19930;-65
2021/12/05 10:48:23;;;;;;;;;;;;;;;;;;5107554;27;20371;-66
2021/12/05 10:50:50;;;;;;;;;;;;;;;;;;5105542;27;19950;-69
2021/12/05 10:53:17;;;;;;;;;;;;;;;;;;5102534;28;19924;-66
2021/12/05 10:55:44;;;;;;;;;;;;;;;;;;5103691;28;19928;-66
2021/12/05 10:58:11;;;;;;;;;;;;;;;;;;5103506;28;19928;-66
2021/12/05 11:00:38;;;;;;;;;;;;;;;;;;5106892;28;19932;-67
2021/12/05 11:03:05;;;;;;;;;;;;;;;;;;5102916;28;19932;-67
2021/12/05 11:05:32;;;;;;;;;;;;;;;;;;5104279;28;19924;-66
2021/12/05 11:07:59;;;;;;;;;;;;;;;;;;5106294;28;20391;-67
2021/12/05 11:10:26;;;;;;;;;;;;;;;;;;5100668;28;19924;-67
2021/12/05 11:12:53;;;;;;;;;;;;;;;;;;5104762;28;19932;-65
2021/12/05 11:15:25;;;;;;;;;;;;;;;;;;5108443;28;19934;-68
2021/12/05 11:17:53;;;;;;;;;;;;;;;;;;5105544;28;20032;-65
2021/12/05 11:20:29;;;;;;;;;;;;;;;;;;5104804;28;20307;-66
2021/12/05 11:22:56;;;;;;;;;;;;;;;;;;5103983;28;19928;-66
2021/12/05 11:25:23;;;;;;;;;;;;;;;;;;5103072;28;19924;-65
2021/12/05 11:27:50;;;;;;;;;;;;;;;;;;5102900;27;19934;-65
2021/12/05 11:30:17;;;;;;;;;;;;;;;;;;5103493;28;19935;-66
2021/12/05 11:32:44;;;;;;;;;;;;;;;;;;5104349;28;20406;-65
2021/12/05 11:35:11;;;;;;;;;;;;;;;;;;5106005;22;19932;-68
2021/12/05 11:37:37;;;;;;;;;;;;;;;;;;5042520;28;20007;-68
2021/12/05 11:40:05;;;;;;;;;;;;;;;;;;5048307;28;19935;-67
2021/12/05 11:42:32;;;;;;;;;;;;;;;;;;5035362;28;20410;-68
2021/12/05 11:45:00;;;;;;;;;;;;;;;;;;5041307;28;19925;-67
2021/12/05 11:47:27;;;;;;;;;;;;;;;;;;5050438;28;19932;-68
2021/12/05 11:49:54;;;;;;;;;;;;;;;;;;5046891;28;19925;-67
2021/12/05 11:52:21;;;;;;;;;;;;;;;;;;5049329;28;20376;-67
2021/12/05 11:54:50;;;;;;;;;;;;;;;;;;5046102;28;20008;-67
2021/12/05 11:57:17;;;;;;;;;;;;;;;;;;5037810;28;19939;-67
2021/12/05 11:59:44;;;;;;;;;;;;;;;;;;5044158;28;20327;-68
2021/12/05 12:02:12;;;;;;;;;;;;;;;;;;5038698;28;19932;-68
2021/12/05 12:04:39;;;;;;;;;;;;;;;;;;5043781;28;20296;-68
2021/12/05 12:07:09;;;;;;;;;;;;;;;;;;5043093;28;19925;-68
2021/12/05 12:09:36;;;;;;;;;;;;;;;;;;5040057;28;19925;-68
2021/12/05 12:12:03;;;;;;;;;;;;;;;;;;5042351;28;20028;-68
2021/12/05 12:14:30;;;;;;;;;;;;;;;;;;5043177;28;19981;-68
2021/12/05 12:16:58;;;;;;;;;;;;;;;;;;5043621;28;19924;-68
2021/12/05 12:19:25;;;;;;;;;;;;;;;;;;5041248;28;19984;-68
2021/12/05 12:21:57;;;;;;;;;;;;;;;;;;5047094;28;19932;-68
2021/12/05 12:24:24;;;;;;;;;;;;;;;;;;5043077;28;19929;-70
2021/12/05 12:26:51;;;;;;;;;;;;;;;;;;5046519;28;19929;-68
2021/12/05 12:29:18;;;;;;;;;;;;;;;;;;5045134;28;19925;-68
2021/12/05 12:31:45;;;;;;;;;;;;;;;;;;5039668;28;19924;-68
2021/12/05 12:34:12;;;;;;;;;;;;;;;;;;5043840;28;19974;-69
2021/12/05 12:36:39;;;;;;;;;;;;;;;;;;5045691;28;19935;-68
2021/12/05 12:39:06;;;;;;;;;;;;;;;;;;5049912;28;19931;-69
2021/12/05 12:41:33;;;;;;;;;;;;;;;;;;5041072;28;20020;-67
2021/12/05 12:44:01;;;;;;;;;;;;;;;;;;5039861;28;19932;-67
2021/12/05 12:46:28;;;;;;;;;;;;;;;;;;5048626;28;19925;-67
2021/12/05 12:48:55;;;;;;;;;;;;;;;;;;5046747;28;19950;-67
2021/12/05 12:51:22;;;;;;;;;;;;;;;;;;5040135;28;20395;-67
2021/12/05 12:53:49;;;;;;;;;;;;;;;;;;5045625;28;19925;-67
2021/12/05 12:56:22;;;;;;;;;;;;;;;;;;5043574;28;20295;-68
2021/12/05 12:58:49;;;;;;;;;;;;;;;;;;5045013;28;19925;-67
2021/12/05 13:01:33;;;;;;;;;;;;;;;;;;5041922;28;19972;-67
2021/12/05 13:12:18;;;;;;;;;;;;;;;;;;5027732;28;19925;-66
2021/12/05 13:14:45;;;;;;;;;;;;;;;;;;5047878;28;19925;-68
2021/12/05 13:17:12;;;;;;;;;;;;;;;;;;5049829;28;19931;-67
2021/12/05 13:19:39;;;;;;;;;;;;;;;;;;5050665;28;19928;-67
2021/12/05 13:22:06;;;;;;;;;;;;;;;;;;5052302;28;20400;-68
2021/12/05 13:24:38;;;;;;;;;;;;;;;;;;5051335;28;19925;-68
2021/12/05 13:27:05;;;;;;;;;;;;;;;;;;5052763;28;19925;-68
2021/12/05 13:29:32;;;;;;;;;;;;;;;;;;5048000;28;19976;-67
2021/12/05 13:31:59;;;;;;;;;;;;;;;;;;5049539;28;19925;-67
2021/12/05 13:34:26;;;;;;;;;;;;;;;;;;5049694;28;20000;-68
2021/12/05 13:36:53;;;;;;;;;;;;;;;;;;5045243;28;19925;-67
2021/12/05 13:39:20;;;;;;;;;;;;;;;;;;5050389;28;20334;-68
2021/12/05 13:41:47;;;;;;;;;;;;;;;;;;5047017;28;20032;-68
2021/12/05 13:44:14;;;;;;;;;;;;;;;;;;5050670;28;20352;-68
2021/12/05 13:46:43;;;;;;;;;;;;;;;;;;5044785;28;19928;-68
2021/12/05 13:49:10;;;;;;;;;;;;;;;;;;5048688;28;19943;-68
2021/12/05 13:51:36;;;;;;;;;;;;;;;;;;5045415;28;20015;-67
2021/12/05 13:54:04;;;;;;;;;;;;;;;;;;5052014;28;19936;-67
2021/12/05 13:56:32;;;;;;;;;;;;;;;;;;5049122;28;20347;-68
2021/12/05 13:59:00;;;;;;;;;;;;;;;;;;5049729;28;19929;-67
2021/12/05 14:01:27;;;;;;;;;;;;;;;;;;5045893;28;19925;-68
2021/12/05 14:03:53;;;;;;;;;;;;;;;;;;5048074;28;20296;-68
2021/12/05 14:06:20;;;;;;;;;;;;;;;;;;5050925;28;19948;-67
2021/12/05 14:08:47;;;;;;;;;;;;;;;;;;5050230;28;19932;-67
2021/12/05 14:11:14;;;;;;;;;;;;;;;;;;5046635;28;19924;-68
2021/12/05 14:13:41;;;;;;;;;;;;;;;;;;5054817;28;19925;-68
2021/12/05 14:16:08;;;;;;;;;;;;;;;;;;5048199;28;20299;-68
2021/12/05 14:18:35;;;;;;;;;;;;;;;;;;5046377;28;19929;-67
2021/12/05 14:21:02;;;;;;;;;;;;;;;;;;5045979;28;19931;-67
2021/12/05 14:23:29;;;;;;;;;;;;;;;;;;5043108;28;20011;-67
2021/12/05 14:25:56;;;;;;;;;;;;;;;;;;5043882;28;19939;-67
2021/12/05 14:28:23;;;;;;;;;;;;;;;;;;5043518;28;19924;-67
2021/12/05 14:30:54;;;;;;;;;;;;;;;;;;5053224;28;19925;-66
2021/12/05 14:33:21;;;;;;;;;;;;;;;;;;5047222;28;19925;-66
2021/12/05 14:35:48;;;;;;;;;;;;;;;;;;5044272;28;19932;-68
2021/12/05 14:38:15;;;;;;;;;;;;;;;;;;5048273;28;19925;-68
2021/12/05 14:40:43;;;;;;;;;;;;;;;;;;5052610;28;19937;-68
2021/12/05 14:43:10;;;;;;;;;;;;;;;;;;5046005;28;19929;-68
2021/12/05 14:45:37;;;;;;;;;;;;;;;;;;5046202;28;19941;-68
2021/12/05 14:48:04;;;;;;;;;;;;;;;;;;5044308;28;19924;-68
2021/12/05 14:50:31;;;;;;;;;;;;;;;;;;5046034;28;20265;-68
2021/12/05 14:53:00;;;;;;;;;;;;;;;;;;5047107;28;19925;-68
2021/12/05 14:55:27;;;;;;;;;;;;;;;;;;5043774;28;19994;-67
2021/12/05 14:57:54;;;;;;;;;;;;;;;;;;5042369;28;19925;-67
2021/12/05 15:00:22;;;;;;;;;;;;;;;;;;5052101;28;19929;-68
2021/12/05 15:02:51;;;;;;;;;;;;;;;;;;5053161;28;19936;-67
2021/12/05 15:05:18;;;;;;;;;;;;;;;;;;5046424;28;19928;-67
2021/12/05 15:07:45;;;;;;;;;;;;;;;;;;5045337;28;20278;-67
2021/12/05 15:10:12;;;;;;;;;;;;;;;;;;5044340;28;19931;-68
2021/12/05 15:12:39;;;;;;;;;;;;;;;;;;5046715;28;20016;-67
2021/12/05 15:15:05;;;;;;;;;;;;;;;;;;5047756;28;19929;-66
2021/12/05 15:17:32;;;;;;;;;;;;;;;;;;5042232;28;19931;-67
2021/12/05 15:19:59;;;;;;;;;;;;;;;;;;5046493;28;19929;-67
2021/12/05 15:22:26;;;;;;;;;;;;;;;;;;5042017;28;19925;-67
2021/12/05 15:24:53;;;;;;;;;;;;;;;;;;5044542;28;19972;-67
2021/12/05 15:27:20;;;;;;;;;;;;;;;;;;5043272;28;19925;-67
2021/12/05 15:29:47;;;;;;;;;;;;;;;;;;5048493;28;20408;-67
2021/12/05 15:32:14;;;;;;;;;;;;;;;;;;5047715;28;20381;-67
2021/12/05 15:34:41;;;;;;;;;;;;;;;;;;5040604;28;19929;-67
2021/12/05 15:37:08;;;;;;;;;;;;;;;;;;5042765;28;20027;-66
2021/12/05 15:39:35;;;;;;;;;;;;;;;;;;5046734;28;20400;-67
2021/12/05 15:42:02;;;;;;;;;;;;;;;;;;5042640;28;19937;-67
2021/12/05 15:44:29;;;;;;;;;;;;;;;;;;5045616;28;20085;-66
2021/12/05 15:46:56;;;;;;;;;;;;;;;;;;5045899;28;20016;-67
2021/12/05 15:49:23;;;;;;;;;;;;;;;;;;5053211;28;19925;-67
2021/12/05 15:51:51;;;;;;;;;;;;;;;;;;5050955;28;19929;-66
2021/12/05 15:54:18;;;;;;;;;;;;;;;;;;5043128;28;19976;-66
2021/12/05 15:56:45;;;;;;;;;;;;;;;;;;5044450;28;19932;-66
2021/12/05 15:59:18;;;;;;;;;;;;;;;;;;5043657;28;19925;-66
2021/12/05 16:01:45;;;;;;;;;;;;;;;;;;5040311;28;20308;-66
2021/12/05 16:04:12;;;;;;;;;;;;;;;;;;5044663;28;19983;-66
2021/12/05 16:06:39;;;;;;;;;;;;;;;;;;5044208;28;19925;-66
2021/12/05 16:09:06;;;;;;;;;;;;;;;;;;5046498;28;20555;-67
2021/12/05 16:11:33;;;;;;;;;;;;;;;;;;5042183;28;19939;-67
2021/12/05 16:14:00;;;;;;;;;;;;;;;;;;5046422;28;20671;-66
2021/12/05 16:16:27;;;;;;;;;;;;;;;;;;5044631;28;19928;-66
2021/12/05 16:18:54;;;;;;;;;;;;;;;;;;5045197;28;19929;-66
2021/12/05 16:21:21;;;;;;;;;;;;;;;;;;5044711;28;19924;-66
2021/12/05 16:23:48;;;;;;;;;;;;;;;;;;5047759;28;19935;-66
2021/12/05 16:26:15;;;;;;;;;;;;;;;;;;5045750;28;19932;-66
2021/12/05 16:28:42;;;;;;;;;;;;;;;;;;5052148;28;19925;-67
2021/12/05 16:31:09;;;;;;;;;;;;;;;;;;5046017;28;19935;-67
2021/12/05 16:33:36;;;;;;;;;;;;;;;;;;5046454;28;19979;-66
2021/12/05 16:36:03;;;;;;;;;;;;;;;;;;5045448;28;20437;-66
2021/12/05 16:38:30;;;;;;;;;;;;;;;;;;5051076;28;19979;-67
2021/12/05 16:40:57;;;;;;;;;;;;;;;;;;5049953;28;19972;-66
2021/12/05 16:43:24;;;;;;;;;;;;;;;;;;5045261;28;20023;-67
2021/12/05 16:45:51;;;;;;;;;;;;;;;;;;5046310;28;20400;-67
2021/12/05 16:48:18;;;;;;;;;;;;;;;;;;5050097;28;19931;-66
2021/12/05 16:50:45;;;;;;;;;;;;;;;;;;5041538;28;20292;-67
2021/12/05 16:53:14;;;;;;;;;;;;;;;;;;5049990;28;20023;-67
2021/12/05 16:55:41;;;;;;;;;;;;;;;;;;5050199;28;20199;-67
2021/12/05 16:58:14;;;;;;;;;;;;;;;;;;5046010;28;19948;-66
2021/12/05 17:00:41;;;;;;;;;;;;;;;;;;5046051;28;20010;-66
2021/12/05 17:03:08;;;;;;;;;;;;;;;;;;5047581;28;19925;-66
2021/12/05 17:05:35;;;;;;;;;;;;;;;;;;5045868;28;19925;-67
2021/12/05 17:08:08;;;;;;;;;;;;;;;;;;5054489;28;19925;-66
2021/12/05 17:10:35;;;;;;;;;;;;;;;;;;5048007;28;19924;-66
2021/12/05 17:13:02;;;;;;;;;;;;;;;;;;5054631;28;20157;-67
2021/12/05 17:15:29;;;;;;;;;;;;;;;;;;5045131;28;19925;-67
2021/12/05 17:18:02;;;;;;;;;;;;;;;;;;5043723;28;20320;-67
2021/12/05 17:20:29;;;;;;;;;;;;;;;;;;5048686;28;20367;-68
2021/12/05 17:22:56;;;;;;;;;;;;;;;;;;5046053;28;19924;-67
2021/12/05 17:25:23;;;;;;;;;;;;;;;;;;5045040;28;19925;-67
2021/12/05 17:27:50;;;;;;;;;;;;;;;;;;5052127;28;20012;-68
2021/12/05 17:30:17;;;;;;;;;;;;;;;;;;5047356;28;19932;-66
2021/12/05 17:32:44;;;;;;;;;;;;;;;;;;5053235;28;19987;-67
2021/12/05 17:35:11;;;;;;;;;;;;;;;;;;5049236;28;19931;-69
2021/12/05 17:37:38;;;;;;;;;;;;;;;;;;5052406;28;19925;-69
2021/12/05 17:40:06;;;;;;;;;;;;;;;;;;5048171;28;19988;-68
2021/12/05 17:42:33;;;;;;;;;;;;;;;;;;5052896;28;19932;-69
2021/12/05 17:45:00;;;;;;;;;;;;;;;;;;5047592;28;19925;-67
2021/12/05 17:47:27;;;;;;;;;;;;;;;;;;5051453;28;19932;-67
2021/12/05 17:49:54;;;;;;;;;;;;;;;;;;5053084;28;20237;-71
2021/12/05 17:52:23;;;;;;;;;;;;;;;;;;5054996;28;19925;-68
2021/12/05 17:54:54;;;;;;;;;;;;;;;;;;5049725;28;20424;-69
2021/12/05 17:57:31;;;;;;;;;;;;;;;;;;5045920;28;20027;-67
2021/12/05 18:00:12;;;;;;;;;;;;;;;;;;5055117;28;20278;-66
2021/12/05 18:02:44;;;;;;;;;;;;;;;;;;5050600;28;19935;-68
2021/12/05 18:05:11;;;;;;;;;;;;;;;;;;5044835;28;19924;-68
2021/12/05 18:07:39;;;;;;;;;;;;;;;;;;5055009;28;20387;-68
2021/12/05 18:10:06;;;;;;;;;;;;;;;;;;5047393;28;19967;-68
2021/12/05 18:12:35;;;;;;;;;;;;;;;;;;5044787;28;19925;-68
2021/12/05 18:15:02;;;;;;;;;;;;;;;;;;5055171;28;19970;-69
2021/12/05 18:17:29;;;;;;;;;;;;;;;;;;5049600;28;19978;-68
2021/12/05 18:19:56;;;;;;;;;;;;;;;;;;5047800;28;19925;-68
2021/12/05 18:22:23;;;;;;;;;;;;;;;;;;5045368;28;19932;-69
2021/12/05 18:24:50;;;;;;;;;;;;;;;;;;5044621;28;20004;-67
2021/12/05 18:27:17;;;;;;;;;;;;;;;;;;5045110;28;19925;-69
2021/12/05 18:29:44;;;;;;;;;;;;;;;;;;5047685;28;20367;-66
2021/12/05 18:32:13;;;;;;;;;;;;;;;;;;5049947;28;19929;-67
2021/12/05 18:34:40;;;;;;;;;;;;;;;;;;5048984;28;19933;-66
2021/12/05 18:37:08;;;;;;;;;;;;;;;;;;5049980;28;20028;-69
2021/12/05 18:39:37;;;;;;;;;;;;;;;;;;5040396;28;19932;-68
2021/12/05 18:42:05;;;;;;;;;;;;;;;;;;5045055;28;19925;-66
2021/12/05 18:44:34;;;;;;;;;;;;;;;;;;5051210;28;19925;-67
2021/12/05 18:47:01;;;;;;;;;;;;;;;;;;5038928;28;19929;-66
2021/12/05 18:49:28;;;;;;;;;;;;;;;;;;5038944;28;19935;-68
2021/12/05 18:51:55;;;;;;;;;;;;;;;;;;5048066;28;19936;-67
2021/12/05 18:54:22;;;;;;;;;;;;;;;;;;5052162;28;20256;-68
2021/12/05 18:56:49;;;;;;;;;;;;;;;;;;5044742;28;20020;-68
2021/12/05 18:59:17;;;;;;;;;;;;;;;;;;5037600;28;19933;-68
2021/12/05 19:04:41;;;;;;;;;;;;;;;;;;5015300;28;20137;-69
2021/12/05 19:07:11;;;;;;;;;;;;;;;;;;5043401;28;19925;-70
2021/12/05 19:11:42;;;;;;;;;;;;;;;;;;5048619;28;20028;-70
2021/12/05 19:12:36;;;;;;;;;;;;;;;;;;5041603;28;19935;-68
2021/12/05 19:15:03;;;;;;;;;;;;;;;;;;5046169;28;19925;-68
2021/12/05 19:17:30;;;;;;;;;;;;;;;;;;5041335;28;19925;-66
2021/12/05 19:19:59;;;;;;;;;;;;;;;;;;5043869;28;19953;-68
2021/12/05 19:22:30;;;;;;;;;;;;;;;;;;5045965;28;20363;-68
2021/12/05 19:24:57;;;;;;;;;;;;;;;;;;5046513;28;20319;-67
2021/12/05 19:27:24;;;;;;;;;;;;;;;;;;5038113;28;19924;-66
2021/12/05 19:29:51;;;;;;;;;;;;;;;;;;5050818;28;20400;-68
2021/12/05 19:32:18;;;;;;;;;;;;;;;;;;5046602;28;19925;-68
2021/12/05 19:34:45;;;;;;;;;;;;;;;;;;5047769;28;19939;-68
2021/12/05 19:37:12;;;;;;;;;;;;;;;;;;5049025;28;19933;-68
2021/12/05 19:39:39;;;;;;;;;;;;;;;;;;5047336;28;20389;-67
2021/12/05 19:42:06;;;;;;;;;;;;;;;;;;5044254;28;19925;-67
2021/12/05 19:44:33;;;;;;;;;;;;;;;;;;5044092;28;19925;-67
2021/12/05 19:47:00;;;;;;;;;;;;;;;;;;5048078;28;19925;-68
2021/12/05 19:49:29;;;;;;;;;;;;;;;;;;5040396;28;19925;-67
2021/12/05 19:51:56;;;;;;;;;;;;;;;;;;5045525;28;19925;-68
2021/12/05 19:54:23;;;;;;;;;;;;;;;;;;5049840;28;20432;-68
2021/12/05 19:56:50;;;;;;;;;;;;;;;;;;5045707;28;19952;-69
2021/12/05 19:59:17;;;;;;;;;;;;;;;;;;5047066;28;20481;-66
2021/12/05 20:01:44;;;;;;;;;;;;;;;;;;5037757;28;19925;-69
2021/12/05 20:04:11;;;;;;;;;;;;;;;;;;5044224;28;19964;-68
2021/12/05 20:06:38;;;;;;;;;;;;;;;;;;5038978;28;19947;-67
2021/12/05 20:09:05;;;;;;;;;;;;;;;;;;5038531;28;20414;-67
2021/12/05 20:11:32;;;;;;;;;;;;;;;;;;5041146;28;20388;-67
2021/12/05 20:13:59;;;;;;;;;;;;;;;;;;5045524;28;20432;-68
2021/12/05 20:16:25;;;;;;;;;;;;;;;;;;5045815;28;19924;-67
2021/12/05 20:18:52;;;;;;;;;;;;;;;;;;5041394;28;19939;-67
2021/12/05 20:21:19;;;;;;;;;;;;;;;;;;5042145;28;19932;-65
2021/12/05 20:23:46;;;;;;;;;;;;;;;;;;5044436;28;19939;-66
2021/12/05 20:26:13;;;;;;;;;;;;;;;;;;5043684;28;19975;-65
2021/12/05 20:28:40;;;;;;;;;;;;;;;;;;5046684;28;19932;-66
2021/12/05 20:31:07;;;;;;;;;;;;;;;;;;5045973;28;19928;-66
2021/12/05 20:33:36;;;;;;;;;;;;;;;;;;5045234;28;20155;-65
2021/12/05 20:36:03;;;;;;;;;;;;;;;;;;5045141;28;20319;-68
2021/12/05 20:38:30;;;;;;;;;;;;;;;;;;5046000;28;19947;-67